Terminal Aerodrome Forecast
Issued by NWS Sterling, VA

Current Version | Previous Version | Text Only | Print | Product List | Glossary Off
Versions: 1 2 3 4 5 6 7 8 9 10 11 12 13 14 15 16 17 18 19 20 21

000
FTUS41 KLWX 201400 AAA
TAFIAD
TAF AMD
KIAD 201456Z 2015/2118 22009G17KT P6SM SCT250
     FM201700 27013G23KT P6SM SCT250
     FM202200 28009KT P6SM FEW250
     FM211500 31013KT P6SM SKC=

USA.gov is the U.S. government's official web portal to all federal, state and local government web resources and services.